Time;durP1;ratioP1;P1;durP2;ratioP2;P2;SDS_P1;SDS_P2;PMS_P1;PMS_P2;Temp;Humidity;BMP_temperature;BMP_pressure;BME280_temperature;BME280_humidity;BME280_pressure;Samples;Min_cycle;Max_cycle;Signal;HPM_P1;HPM_P2
2023/01/11 00:00:11;;;;;;;4.63;2.10;;;21.90;52.80;;;;;;5024787;28;20469;-64
2023/01/11 00:02:36;;;;;;;4.90;2.17;;;21.90;52.80;;;;;;5022261;28;20029;-64
2023/01/11 00:05:03;;;;;;;4.88;1.90;;;21.90;52.80;;;;;;5016733;28;20029;-63
2023/01/11 00:07:29;;;;;;;4.03;1.90;;;21.80;52.80;;;;;;5023606;28;20033;-64
2023/01/11 00:09:54;;;;;;;3.80;2.00;;;21.80;52.90;;;;;;5019834;28;20034;-63
2023/01/11 00:12:20;;;;;;;4.55;2.00;;;21.80;52.90;;;;;;5019188;28;20501;-65
2023/01/11 00:14:46;;;;;;;4.25;2.08;;;21.80;52.90;;;;;;5014870;28;20366;-63
2023/01/11 00:17:11;;;;;;;4.35;1.90;;;21.80;53.00;;;;;;5016361;28;20021;-63
2023/01/11 00:19:37;;;;;;;3.35;2.13;;;21.70;53.00;;;;;;5022775;28;20100;-63
2023/01/11 00:22:02;;;;;;;3.88;2.08;;;21.70;53.10;;;;;;5019470;28;20453;-63
2023/01/11 00:24:28;;;;;;;3.60;1.65;;;21.70;53.10;;;;;;5016838;28;20037;-63
2023/01/11 00:26:53;;;;;;;4.03;1.90;;;21.70;53.10;;;;;;5021370;28;20088;-64
2023/01/11 00:29:19;;;;;;;5.68;2.13;;;21.70;53.20;;;;;;5021704;28;20414;-63
2023/01/11 00:31:44;;;;;;;3.88;1.80;;;21.70;53.20;;;;;;5023456;28;20037;-64
2023/01/11 00:34:10;;;;;;;5.40;2.20;;;21.60;53.20;;;;;;5020541;28;20113;-64
2023/01/11 00:36:36;;;;;;;3.05;1.70;;;21.60;53.20;;;;;;5020532;28;20022;-63
2023/01/11 00:39:01;;;;;;;2.95;1.60;;;21.60;53.30;;;;;;5017479;28;20026;-63
2023/01/11 00:49:41;;;;;;;4.22;2.00;;;21.50;53.40;;;;;;5022298;28;20045;-64
2023/01/11 00:52:08;;;;;;;3.88;1.80;;;21.50;53.40;;;;;;5018785;28;20026;-64
2023/01/11 00:54:38;;;;;;;3.65;1.70;;;21.50;53.40;;;;;;5015957;28;20026;-63
2023/01/11 00:57:06;;;;;;;2.60;1.50;;;21.40;53.40;;;;;;5018974;28;20508;-63
2023/01/11 00:59:35;;;;;;;3.42;1.75;;;21.40;53.40;;;;;;5021349;28;20013;-63
2023/01/11 01:02:02;;;;;;;3.30;1.50;;;21.40;53.50;;;;;;5036224;28;20044;-63
2023/01/11 01:04:27;;;;;;;2.92;1.40;;;21.40;53.50;;;;;;5016855;28;20124;-64
2023/01/11 01:06:53;;;;;;;2.92;1.63;;;21.40;53.60;;;;;;5020993;28;20449;-63
2023/01/11 01:09:18;;;;;;;3.25;1.60;;;21.40;53.60;;;;;;5018992;28;20029;-63
2023/01/11 01:11:44;;;;;;;3.42;1.65;;;21.40;53.60;;;;;;5023438;28;20025;-64
2023/01/11 01:14:27;;;;;;;3.67;1.60;;;21.30;53.60;;;;;;5019919;28;20022;-64
2023/01/11 01:17:13;;;;;;;3.05;1.60;;;21.30;53.60;;;;;;5021223;28;20018;-64
2023/01/11 01:19:39;;;;;;;2.67;1.58;;;21.30;53.60;;;;;;5017890;28;20065;-65
2023/01/11 01:22:05;;;;;;;3.17;1.50;;;21.30;53.70;;;;;;5018608;28;20129;-64
2023/01/11 01:24:31;;;;;;;2.88;1.45;;;21.30;53.70;;;;;;5020750;28;20087;-64
2023/01/11 01:26:57;;;;;;;3.05;1.52;;;21.30;53.70;;;;;;5021378;28;20035;-64
2023/01/11 01:29:24;;;;;;;3.45;1.60;;;21.30;53.80;;;;;;5021468;28;20017;-63
2023/01/11 01:31:49;;;;;;;2.67;1.60;;;21.20;54.30;;;;;;5020910;28;20034;-64
2023/01/11 01:34:15;;;;;;;2.75;1.45;;;21.20;53.80;;;;;;5017005;28;20033;-64
2023/01/11 01:36:41;;;;;;;4.03;1.70;;;21.20;53.80;;;;;;5019814;28;20148;-64
2023/01/11 01:39:07;;;;;;;2.95;1.60;;;21.20;53.80;;;;;;5017885;28;20034;-63
2023/01/11 01:41:33;;;;;;;2.92;1.33;;;21.20;53.80;;;;;;5020160;28;20084;-63
2023/01/11 01:44:02;;;;;;;3.35;1.60;;;21.20;53.90;;;;;;5017624;28;20390;-64
2023/01/11 01:46:30;;;;;;;3.72;1.55;;;21.20;53.90;;;;;;5029969;28;20030;-65
2023/01/11 01:49:00;;;;;;;3.33;1.70;;;21.10;53.80;;;;;;5018219;28;20056;-63
2023/01/11 01:51:32;;;;;;;2.58;1.45;;;21.10;53.80;;;;;;5026206;28;20408;-63
2023/01/11 01:54:02;;;;;;;3.30;1.50;;;21.10;53.90;;;;;;5016451;28;20018;-64
2023/01/11 01:56:34;;;;;;;2.42;1.30;;;21.10;53.90;;;;;;5019290;28;20018;-64
2023/01/11 01:59:07;;;;;;;3.00;1.67;;;21.10;53.90;;;;;;5019838;28;20041;-65
2023/01/11 02:01:48;;;;;;;3.60;1.55;;;21.10;53.90;;;;;;5018787;28;20017;-64
2023/01/11 02:04:14;;;;;;;2.95;1.60;;;21.10;53.90;;;;;;5021324;28;20056;-63
2023/01/11 02:06:40;;;;;;;2.90;1.50;;;21.10;54.00;;;;;;5021288;28;20101;-64
2023/01/11 02:09:35;;;;;;;2.35;1.33;;;21.00;54.00;;;;;;5019991;28;20025;-63
2023/01/11 02:12:01;;;;;;;2.75;1.40;;;21.00;54.00;;;;;;5016414;28;20140;-64
2023/01/11 02:14:29;;;;;;;2.67;1.50;;;21.00;54.00;;;;;;5017608;28;20032;-63
2023/01/11 02:16:55;;;;;;;3.00;1.50;;;21.00;54.10;;;;;;5020062;28;20025;-64
2023/01/11 02:19:49;;;;;;;3.03;1.33;;;21.00;54.10;;;;;;5023015;28;20022;-63
2023/01/11 02:22:36;;;;;;;2.53;1.35;;;21.00;54.10;;;;;;5023800;28;20034;-64
2023/01/11 02:25:39;;;;;;;2.38;1.30;;;20.90;54.00;;;;;;5019892;28;20030;-63
2023/01/11 02:28:29;;;;;;;3.00;1.40;;;20.90;54.10;;;;;;5017468;28;20034;-64
2023/01/11 02:31:15;;;;;;;3.55;1.58;;;20.90;54.10;;;;;;5019553;28;20037;-65
2023/01/11 02:33:43;;;;;;;3.30;1.60;;;20.90;54.20;;;;;;5020689;28;20115;-63
2023/01/11 02:36:24;;;;;;;3.25;1.40;;;20.90;54.20;;;;;;5019144;28;20389;-64
2023/01/11 02:38:57;;;;;;;2.53;1.30;;;20.90;54.20;;;;;;5019823;28;20053;-64
2023/01/11 02:45:02;;;;;;;2.42;1.23;;;20.90;54.20;;;;;;5022383;28;20056;-63
2023/01/11 02:47:56;;;;;;;3.20;1.45;;;20.80;54.20;;;;;;5019957;28;20525;-64
2023/01/11 02:50:28;;;;;;;2.22;1.25;;;20.80;54.20;;;;;;5018395;28;20415;-64
2023/01/11 02:53:31;;;;;;;3.72;1.42;;;20.80;54.20;;;;;;5016448;28;20111;-64
2023/01/11 02:56:01;;;;;;;2.40;1.30;;;20.80;54.30;;;;;;5019110;28;20099;-64
2023/01/11 02:58:31;;;;;;;2.55;1.20;;;20.80;54.30;;;;;;5017015;28;20376;-63
2023/01/11 03:00:57;;;;;;;2.85;1.50;;;20.80;54.30;;;;;;5022325;28;20022;-63
2023/01/11 03:03:26;;;;;;;1.77;1.10;;;20.70;54.30;;;;;;5028071;28;20025;-63
2023/01/11 03:05:56;;;;;;;2.60;1.20;;;20.70;54.30;;;;;;5026050;28;20029;-64
2023/01/11 03:08:43;;;;;;;2.20;1.30;;;20.70;54.30;;;;;;5021448;28;20124;-63
2023/01/11 03:14:36;;;;;;;2.58;1.27;;;20.70;54.40;;;;;;5022807;28;20060;-63
2023/01/11 03:17:58;;;;;;;2.25;1.25;;;20.70;54.40;;;;;;5021898;28;20045;-63
2023/01/11 03:20:32;;;;;;;2.25;1.30;;;20.70;54.40;;;;;;5017271;28;20029;-64
2023/01/11 03:23:09;;;;;;;2.25;1.30;;;20.70;54.40;;;;;;5018840;28;20479;-64
2023/01/11 03:26:12;;;;;;;2.35;1.20;;;20.70;54.50;;;;;;5018920;28;20030;-64
2023/01/11 03:28:47;;;;;;;2.85;1.30;;;20.70;54.50;;;;;;5021978;28;20038;-63
2023/01/11 03:31:21;;;;;;;2.15;1.20;;;20.70;54.50;;;;;;5018117;28;20453;-63
2023/01/11 03:34:15;;;;;;;2.63;1.30;;;20.60;54.40;;;;;;5022256;28;20029;-64
2023/01/11 03:36:49;;;;;;;2.25;1.35;;;20.60;54.50;;;;;;5022257;28;20497;-64
2023/01/11 03:39:28;;;;;;;2.85;1.40;;;20.60;54.50;;;;;;5022223;28;20530;-64
2023/01/11 03:41:58;;;;;;;2.75;1.27;;;20.60;54.50;;;;;;5018146;28;20033;-63
2023/01/11 03:44:27;;;;;;;2.80;1.30;;;20.60;54.50;;;;;;5022807;28;20076;-63
2023/01/11 03:46:59;;;;;;;2.38;1.10;;;20.60;54.50;;;;;;5021121;28;20053;-64
2023/01/11 03:49:31;;;;;;;2.25;1.20;;;20.60;54.60;;;;;;5020484;28;20465;-63
2023/01/11 03:51:59;;;;;;;2.67;1.40;;;20.60;54.60;;;;;;5017895;28;20476;-64
2023/01/11 03:54:27;;;;;;;2.50;1.27;;;20.60;54.60;;;;;;5017325;28;20508;-63
2023/01/11 03:57:25;;;;;;;2.33;1.10;;;20.60;54.60;;;;;;5022885;28;20022;-63
2023/01/11 03:59:50;;;;;;;2.40;1.30;;;20.60;54.60;;;;;;5015537;28;20045;-63
2023/01/11 04:02:23;;;;;;;2.15;1.20;;;20.50;54.60;;;;;;5022229;28;20453;-64
2023/01/11 04:04:49;;;;;;;2.20;1.20;;;20.50;54.70;;;;;;5021244;28;20116;-63
2023/01/11 04:07:14;;;;;;;1.90;1.30;;;20.50;54.70;;;;;;5017884;28;20117;-62
2023/01/11 04:09:40;;;;;;;2.38;1.33;;;20.50;54.70;;;;;;5021179;28;20034;-63
2023/01/11 04:12:06;;;;;;;2.60;1.30;;;20.50;54.70;;;;;;5021138;28;20040;-63
2023/01/11 04:14:32;;;;;;;1.63;1.00;;;20.50;54.70;;;;;;5022277;28;20117;-64
2023/01/11 04:16:57;;;;;;;2.30;1.17;;;20.50;54.70;;;;;;5024558;28;20113;-63
2023/01/11 04:19:23;;;;;;;2.20;1.10;;;20.50;54.70;;;;;;5024248;28;20029;-64
2023/01/11 04:21:49;;;;;;;2.65;1.20;;;20.50;54.80;;;;;;5018970;28;20151;-63
2023/01/11 04:24:14;;;;;;;1.98;1.13;;;20.50;54.80;;;;;;5018114;28;20096;-64
2023/01/11 04:26:40;;;;;;;2.28;1.10;;;20.50;54.80;;;;;;5023081;28;20026;-63
2023/01/11 04:29:06;;;;;;;2.38;1.40;;;20.50;54.80;;;;;;5016255;28;20393;-64
2023/01/11 04:31:31;;;;;;;2.50;1.15;;;20.50;54.90;;;;;;5020999;28;20500;-64
2023/01/11 04:33:57;;;;;;;1.20;0.98;;;20.50;54.90;;;;;;5020341;28;20393;-65
2023/01/11 04:36:23;;;;;;;2.30;1.08;;;20.50;54.90;;;;;;5015981;28;20029;-63
2023/01/11 04:38:50;;;;;;;2.35;1.30;;;20.50;54.90;;;;;;5020614;28;20488;-64
2023/01/11 04:43:59;;;;;;;1.83;1.20;;;20.50;55.00;;;;;;5016685;28;20044;-65
2023/01/11 04:46:25;;;;;;;1.23;0.90;;;20.50;55.00;;;;;;5020744;28;20029;-63
2023/01/11 04:48:51;;;;;;;2.10;1.20;;;20.40;54.90;;;;;;5023070;28;20026;-64
2023/01/11 04:51:17;;;;;;;1.85;1.10;;;20.50;55.00;;;;;;5021292;28;20072;-64
2023/01/11 04:53:45;;;;;;;1.83;1.00;;;20.40;54.90;;;;;;5019057;28;20457;-63
2023/01/11 04:56:10;;;;;;;2.00;1.15;;;20.40;55.00;;;;;;5019546;28;20025;-63
2023/01/11 04:58:36;;;;;;;1.40;0.95;;;20.40;55.00;;;;;;5020876;28;20036;-64
2023/01/11 05:01:18;;;;;;;2.60;1.20;;;20.40;55.00;;;;;;5019978;28;20119;-64
2023/01/11 05:03:44;;;;;;;1.95;1.10;;;20.40;55.00;;;;;;5021972;28;20036;-63
2023/01/11 05:06:10;;;;;;;2.15;1.10;;;20.40;55.00;;;;;;5020296;28;20133;-63
2023/01/11 05:08:37;;;;;;;1.83;1.02;;;20.40;55.00;;;;;;5021705;28;20060;-63
2023/01/11 05:11:05;;;;;;;2.03;1.08;;;20.40;55.00;;;;;;5019702;28;20030;-63
2023/01/11 05:13:43;;;;;;;1.58;0.88;;;20.40;55.00;;;;;;5022629;28;20061;-64
2023/01/11 05:16:16;;;;;;;1.27;1.00;;;20.40;55.00;;;;;;5020118;28;20032;-63
2023/01/11 05:18:53;;;;;;;1.52;0.93;;;20.40;55.10;;;;;;5021368;28;20022;-63
2023/01/11 05:21:30;;;;;;;1.60;1.10;;;20.40;55.10;;;;;;5017165;28;20029;-63
2023/01/11 05:23:57;;;;;;;2.85;1.20;;;20.40;55.10;;;;;;5021238;28;20072;-63
2023/01/11 05:26:28;;;;;;;1.98;1.10;;;20.40;55.10;;;;;;5019826;28;20138;-63
2023/01/11 05:28:57;;;;;;;1.85;1.10;;;20.40;55.10;;;;;;5017826;28;20029;-64
2023/01/11 05:31:23;;;;;;;2.67;1.25;;;20.40;55.20;;;;;;5020559;28;20034;-63
2023/01/11 05:33:49;;;;;;;2.78;1.10;;;20.40;55.20;;;;;;5018662;28;20052;-63
2023/01/11 05:36:17;;;;;;;2.15;1.10;;;20.40;55.20;;;;;;5017509;28;20026;-64
2023/01/11 05:38:45;;;;;;;2.05;1.02;;;20.40;55.20;;;;;;5022665;28;20032;-63
2023/01/11 05:41:11;;;;;;;2.08;1.10;;;20.40;55.20;;;;;;5019631;28;20132;-63
2023/01/11 05:46:22;;;;;;;2.15;1.20;;;20.40;55.20;;;;;;5016658;28;20091;-64
2023/01/11 05:48:48;;;;;;;1.30;0.88;;;20.30;55.20;;;;;;5017882;28;20057;-65
2023/01/11 05:51:14;;;;;;;2.15;1.10;;;20.40;55.30;;;;;;5024965;28;20370;-64
2023/01/11 05:53:39;;;;;;;1.55;0.93;;;20.40;55.30;;;;;;5020577;28;20087;-63
2023/01/11 05:56:05;;;;;;;1.45;0.90;;;20.40;55.30;;;;;;5014351;28;20440;-64
2023/01/11 05:58:31;;;;;;;1.40;0.93;;;20.30;55.30;;;;;;5019775;28;20025;-65
2023/01/11 06:00:56;;;;;;;2.15;1.08;;;20.30;55.30;;;;;;5017021;28;20440;-63
2023/01/11 06:03:24;;;;;;;1.65;0.90;;;20.30;55.30;;;;;;5018473;28;20048;-63
2023/01/11 06:05:50;;;;;;;1.42;0.90;;;20.30;55.30;;;;;;5031850;28;20124;-63
2023/01/11 06:08:16;;;;;;;2.00;1.10;;;20.30;55.30;;;;;;5016980;28;20049;-64
2023/01/11 06:10:42;;;;;;;2.15;1.00;;;20.30;55.40;;;;;;5021774;28;20077;-63
2023/01/11 06:13:26;;;;;;;0.98;0.75;;;20.30;55.40;;;;;;5021293;28;20037;-64
2023/01/11 06:16:04;;;;;;;1.30;0.90;;;20.30;55.40;;;;;;5017353;28;20029;-63
2023/01/11 06:18:32;;;;;;;1.60;0.90;;;20.30;55.50;;;;;;5019213;28;20381;-63
2023/01/11 06:20:57;;;;;;;1.75;1.00;;;20.20;55.60;;;;;;5020439;28;20021;-64
2023/01/11 06:23:24;;;;;;;1.35;0.93;;;20.20;55.70;;;;;;5020380;28;20053;-63
2023/01/11 06:25:50;;;;;;;1.65;0.88;;;20.20;55.70;;;;;;5021222;28;20138;-63
2023/01/11 06:28:16;;;;;;;1.38;0.73;;;20.20;55.80;;;;;;5021106;28;20037;-63
2023/01/11 06:30:42;;;;;;;1.42;0.80;;;20.20;55.90;;;;;;5020123;28;20037;-64
2023/01/11 06:33:07;;;;;;;1.55;0.90;;;20.20;55.90;;;;;;5022114;28;20032;-64
2023/01/11 06:35:40;;;;;;;1.33;0.80;;;20.20;55.90;;;;;;5021766;28;20025;-65
2023/01/11 06:38:08;;;;;;;1.45;0.77;;;20.20;55.90;;;;;;5022662;28;20480;-64
2023/01/11 06:40:35;;;;;;;1.40;0.82;;;20.20;55.90;;;;;;5022419;28;20030;-63
2023/01/11 06:43:01;;;;;;;1.58;0.80;;;20.20;55.80;;;;;;5021106;28;20442;-63
2023/01/11 06:45:27;;;;;;;1.45;0.90;;;20.20;55.80;;;;;;5023861;28;20064;-64
2023/01/11 06:47:52;;;;;;;1.65;0.77;;;20.20;55.80;;;;;;5019763;28;20474;-63
2023/01/11 06:50:18;;;;;;;1.98;0.90;;;20.20;55.80;;;;;;5017484;28;20074;-64
2023/01/11 06:52:55;;;;;;;1.60;0.77;;;20.20;55.80;;;;;;5026416;28;20029;-65
2023/01/11 06:55:22;;;;;;;1.38;0.80;;;20.20;56.00;;;;;;5023995;28;20848;-63
2023/01/11 06:57:48;;;;;;;2.08;0.90;;;20.20;56.00;;;;;;5021968;28;20018;-64
2023/01/11 07:00:15;;;;;;;1.25;0.88;;;20.20;56.00;;;;;;5022451;28;20449;-64
2023/01/11 07:02:41;;;;;;;1.30;0.77;;;20.20;55.90;;;;;;5020508;28;20389;-63
2023/01/11 07:05:07;;;;;;;1.00;0.70;;;20.20;56.00;;;;;;5020029;28;20044;-63
2023/01/11 07:07:33;;;;;;;1.17;0.80;;;20.20;55.90;;;;;;5021400;28;20038;-64
2023/01/11 07:09:58;;;;;;;1.67;0.75;;;20.20;55.90;;;;;;5023384;28;20041;-64
2023/01/11 07:12:24;;;;;;;1.08;0.77;;;20.20;55.90;;;;;;5022568;28;20025;-63
2023/01/11 07:14:49;;;;;;;1.65;0.80;;;20.20;55.90;;;;;;5021784;28;20461;-64
2023/01/11 07:17:15;;;;;;;1.42;0.77;;;20.20;55.90;;;;;;5024077;28;20071;-63
2023/01/11 07:19:40;;;;;;;1.30;0.80;;;20.20;55.90;;;;;;5023361;28;20042;-64
2023/01/11 07:22:06;;;;;;;2.67;1.15;;;20.20;55.90;;;;;;5024835;28;20030;-63
2023/01/11 07:24:32;;;;;;;1.42;0.80;;;20.20;55.90;;;;;;5023727;28;20036;-64
2023/01/11 07:27:00;;;;;;;2.08;0.80;;;20.20;55.90;;;;;;5021210;28;20029;-63
2023/01/11 07:29:26;;;;;;;1.73;0.90;;;20.20;55.90;;;;;;5018860;28;20587;-63
2023/01/11 07:31:51;;;;;;;2.45;0.80;;;20.20;55.90;;;;;;5020263;28;20463;-63
2023/01/11 07:34:17;;;;;;;2.10;0.80;;;20.20;55.90;;;;;;5023733;28;20132;-64
2023/01/11 07:36:42;;;;;;;1.20;0.70;;;20.20;56.00;;;;;;5019822;28;20034;-65
2023/01/11 07:39:08;;;;;;;1.83;0.85;;;20.20;56.00;;;;;;5021592;28;20053;-63
2023/01/11 07:44:18;;;;;;;1.60;0.90;;;20.10;55.90;;;;;;5023735;28;20430;-64
2023/01/11 07:46:44;;;;;;;1.45;0.70;;;20.10;55.90;;;;;;5016470;28;20112;-63
2023/01/11 07:49:10;;;;;;;1.00;0.70;;;20.10;55.90;;;;;;5021093;28;20473;-63
2023/01/11 07:51:35;;;;;;;1.42;0.80;;;20.10;55.90;;;;;;5021296;28;20033;-63
2023/01/11 07:54:02;;;;;;;2.25;0.88;;;20.10;55.90;;;;;;5020991;28;20041;-65
2023/01/11 07:56:28;;;;;;;1.27;0.80;;;20.10;55.90;;;;;;5022404;28;20014;-63
2023/01/11 07:58:54;;;;;;;1.42;0.85;;;20.10;55.90;;;;;;5024254;28;20026;-63
2023/01/11 08:01:20;;;;;;;1.15;0.70;;;20.10;55.90;;;;;;5019758;28;20108;-65
2023/01/11 08:03:46;;;;;;;1.38;0.80;;;20.10;55.90;;;;;;5022589;28;20217;-63
2023/01/11 08:06:13;;;;;;;2.10;1.00;;;20.10;56.00;;;;;;5023064;28;20150;-63
2023/01/11 08:08:39;;;;;;;0.95;0.70;;;20.10;56.00;;;;;;5024411;28;20021;-63
2023/01/11 08:16:33;;;;;;;1.80;0.88;;;20.10;56.00;;;;;;5020526;28;20448;-64
2023/01/11 08:18:58;;;;;;;1.35;0.90;;;20.10;56.00;;;;;;5019522;28;20101;-63
2023/01/11 08:21:24;;;;;;;2.35;0.90;;;20.10;56.00;;;;;;5017745;28;20083;-62
2023/01/11 08:23:52;;;;;;;1.75;0.80;;;20.10;56.00;;;;;;5020078;28;20106;-63
2023/01/11 08:26:18;;;;;;;1.63;0.70;;;20.10;56.00;;;;;;5020736;28;20435;-63
2023/01/11 08:28:44;;;;;;;1.33;0.90;;;20.10;56.10;;;;;;5016944;28;20026;-63
2023/01/11 08:31:09;;;;;;;1.27;0.80;;;20.10;56.10;;;;;;5017302;28;20492;-63
2023/01/11 08:33:35;;;;;;;1.85;0.77;;;20.10;56.10;;;;;;5015267;28;20029;-62
2023/01/11 08:36:09;;;;;;;0.90;0.70;;;20.10;56.10;;;;;;5020316;28;20397;-63
2023/01/11 08:38:35;;;;;;;1.40;0.88;;;20.10;56.10;;;;;;5019464;28;20057;-63
2023/01/11 08:41:01;;;;;;;1.85;0.70;;;20.00;56.10;;;;;;5022390;28;20057;-64
2023/01/11 08:43:30;;;;;;;1.63;1.00;;;20.10;56.10;;;;;;5020224;28;20030;-62
2023/01/11 08:45:56;;;;;;;1.47;0.90;;;20.10;56.10;;;;;;5034921;28;20150;-62
2023/01/11 08:48:22;;;;;;;1.45;0.90;;;20.10;56.20;;;;;;5022052;28;20170;-62
2023/01/11 08:50:47;;;;;;;1.20;0.80;;;20.00;56.10;;;;;;5023104;28;20457;-62
2023/01/11 08:53:14;;;;;;;1.60;0.82;;;20.00;56.10;;;;;;5022426;28;20091;-63
2023/01/11 08:55:43;;;;;;;1.55;0.85;;;20.00;56.10;;;;;;5021407;28;20033;-63
2023/01/11 08:58:09;;;;;;;1.50;0.93;;;20.10;56.20;;;;;;5018124;28;20022;-63
2023/01/11 09:00:34;;;;;;;2.13;1.00;;;20.00;56.10;;;;;;5019612;28;20129;-61
2023/01/11 09:03:00;;;;;;;1.63;0.90;;;20.00;56.10;;;;;;5019731;28;20029;-62
2023/01/11 09:05:26;;;;;;;2.10;0.98;;;20.00;56.20;;;;;;5020538;28;20034;-62
2023/01/11 09:07:55;;;;;;;2.88;1.10;;;20.00;56.20;;;;;;5017947;28;20119;-62
2023/01/11 09:10:25;;;;;;;1.85;1.00;;;20.00;56.20;;;;;;5019198;28;20030;-62
2023/01/11 09:12:54;;;;;;;1.80;1.00;;;20.00;56.20;;;;;;5021399;28;20488;-63
2023/01/11 09:15:20;;;;;;;1.70;0.95;;;20.00;56.30;;;;;;5019821;28;20037;-62
2023/01/11 09:17:46;;;;;;;1.45;0.90;;;20.00;56.30;;;;;;5020701;28;20042;-63
2023/01/11 09:20:12;;;;;;;2.90;1.00;;;20.00;56.30;;;;;;5019872;28;20525;-63
2023/01/11 09:22:38;;;;;;;2.00;0.90;;;20.00;56.40;;;;;;5017385;28;20175;-63
2023/01/11 09:25:04;;;;;;;2.25;1.05;;;20.00;56.40;;;;;;5018542;28;20030;-63
2023/01/11 09:27:30;;;;;;;3.03;1.08;;;20.00;56.40;;;;;;5019594;28;20037;-62
2023/01/11 09:29:55;;;;;;;2.22;1.10;;;20.00;56.50;;;;;;5017825;28;20037;-63
2023/01/11 09:32:21;;;;;;;3.08;1.20;;;20.00;56.50;;;;;;5021734;28;20037;-63
2023/01/11 09:34:48;;;;;;;2.53;1.20;;;20.00;56.60;;;;;;5020434;28;20057;-63
2023/01/11 09:37:14;;;;;;;1.63;0.98;;;20.00;56.60;;;;;;5019168;28;20021;-62
2023/01/11 09:39:40;;;;;;;3.05;1.17;;;20.00;56.60;;;;;;5020552;28;20323;-63
2023/01/11 09:42:39;;;;;;;2.25;0.93;;;20.00;56.60;;;;;;5017345;28;20040;-62
2023/01/11 09:45:20;;;;;;;1.42;1.00;;;20.00;56.70;;;;;;5019113;28;20361;-62
2023/01/11 09:47:51;;;;;;;2.83;1.20;;;20.00;56.70;;;;;;5017785;28;20553;-62
2023/01/11 09:50:29;;;;;;;2.42;1.13;;;20.00;56.70;;;;;;5015252;28;20034;-63
2023/01/11 09:53:03;;;;;;;2.00;1.10;;;20.00;56.70;;;;;;5019400;28;20477;-62
2023/01/11 09:55:43;;;;;;;2.10;1.25;;;20.00;56.70;;;;;;5016225;28;20377;-63
2023/01/11 09:58:47;;;;;;;2.42;1.10;;;20.00;56.70;;;;;;5021878;28;20109;-63
2023/01/11 10:01:16;;;;;;;2.75;1.13;;;20.00;56.80;;;;;;5021254;28;20022;-62
2023/01/11 10:04:32;;;;;;;3.10;1.40;;;20.00;56.80;;;;;;5016928;28;20058;-62
2023/01/11 10:07:28;;;;;;;2.03;1.10;;;20.00;56.80;;;;;;5020500;28;20033;-62
2023/01/11 10:10:12;;;;;;;2.47;1.20;;;20.00;56.90;;;;;;5025170;28;20418;-62
2023/01/11 10:12:47;;;;;;;2.28;1.27;;;20.00;56.80;;;;;;5019355;28;20022;-62
2023/01/11 10:15:56;;;;;;;2.63;1.27;;;20.00;56.80;;;;;;5021702;28;20045;-62
2023/01/11 10:19:00;;;;;;;2.63;1.38;;;20.00;56.90;;;;;;5015654;28;20496;-62
2023/01/11 10:21:34;;;;;;;1.67;1.00;;;20.00;56.90;;;;;;5018813;28;20030;-63
2023/01/11 10:24:11;;;;;;;2.08;1.10;;;20.00;56.90;;;;;;5019165;28;20035;-62
2023/01/11 10:26:41;;;;;;;2.42;1.40;;;20.00;56.90;;;;;;5017749;28;20550;-62
2023/01/11 10:34:59;;;;;;;2.45;1.10;;;20.00;56.90;;;;;;5018875;28;19913;-62
2023/01/11 10:38:05;;;;;;;2.90;1.20;;;20.00;56.80;;;;;;5018106;28;20017;-62
2023/01/11 10:41:07;;;;;;;2.25;1.13;;;20.00;56.80;;;;;;5018789;28;20030;-62
2023/01/11 10:43:40;;;;;;;1.85;1.05;;;20.00;56.80;;;;;;5020775;28;20036;-64
2023/01/11 10:46:09;;;;;;;1.67;0.98;;;20.00;56.80;;;;;;5017243;28;20041;-62
2023/01/11 10:48:41;;;;;;;2.25;1.25;;;20.00;56.80;;;;;;5021553;28;20477;-63
2023/01/11 10:51:26;;;;;;;1.83;1.13;;;20.00;57.30;;;;;;5018744;28;20040;-63
2023/01/11 10:54:12;;;;;;;1.77;0.90;;;20.00;56.80;;;;;;5017585;28;20037;-63
2023/01/11 10:57:06;;;;;;;1.55;0.90;;;20.00;56.80;;;;;;5019623;28;20017;-63
2023/01/11 10:59:49;;;;;;;2.17;1.10;;;20.00;56.80;;;;;;5017494;28;20022;-62
2023/01/11 11:02:36;;;;;;;2.47;1.38;;;20.00;56.70;;;;;;5019222;28;20431;-63
2023/01/11 11:05:20;;;;;;;1.80;1.00;;;20.00;56.70;;;;;;5018565;28;20030;-62
2023/01/11 11:08:25;;;;;;;3.08;1.15;;;20.00;56.70;;;;;;5017541;28;20033;-63
2023/01/11 11:11:17;;;;;;;1.38;0.90;;;20.00;56.70;;;;;;5016348;28;20031;-63
2023/01/11 11:14:05;;;;;;;1.50;1.00;;;20.00;56.70;;;;;;5019583;28;20029;-63
2023/01/11 11:16:52;;;;;;;2.25;1.00;;;20.00;56.80;;;;;;5015319;28;20034;-62
2023/01/11 11:19:24;;;;;;;2.28;1.10;;;20.00;56.70;;;;;;5020231;28;20021;-64
2023/01/11 11:21:51;;;;;;;2.20;0.90;;;20.00;56.70;;;;;;5022059;28;20075;-63
2023/01/11 11:24:35;;;;;;;2.58;1.00;;;20.00;56.70;;;;;;5023938;28;20033;-62
2023/01/11 11:27:14;;;;;;;2.10;1.00;;;20.00;56.70;;;;;;5021682;28;20052;-62
2023/01/11 11:29:42;;;;;;;1.60;1.00;;;20.00;56.70;;;;;;5018468;28;20029;-63
2023/01/11 11:32:23;;;;;;;3.13;1.00;;;20.00;56.70;;;;;;5020048;28;20100;-63
2023/01/11 11:34:49;;;;;;;1.92;0.98;;;20.00;56.70;;;;;;5022131;28;20021;-63
2023/01/11 11:37:39;;;;;;;1.85;1.00;;;20.00;56.70;;;;;;5020410;28;20026;-62
2023/01/11 11:40:05;;;;;;;2.53;1.10;;;20.00;57.20;;;;;;5026678;28;20495;-63
2023/01/11 11:42:31;;;;;;;1.80;1.00;;;20.00;56.70;;;;;;5021579;28;20034;-62
2023/01/11 11:45:08;;;;;;;1.92;1.20;;;20.00;56.70;;;;;;5018469;28;20034;-63
2023/01/11 11:47:35;;;;;;;2.45;1.20;;;20.00;56.70;;;;;;5021021;28;20030;-62
2023/01/11 11:50:19;;;;;;;1.85;1.05;;;20.00;56.70;;;;;;5039057;28;20125;-62
2023/01/11 11:52:50;;;;;;;2.20;1.00;;;20.00;56.70;;;;;;5023924;28;20078;-63
2023/01/11 11:55:16;;;;;;;2.22;0.93;;;20.00;56.70;;;;;;5017954;28;20101;-62
2023/01/11 11:57:42;;;;;;;2.00;1.00;;;20.00;56.70;;;;;;5020602;28;20030;-62
2023/01/11 12:00:25;;;;;;;1.73;1.00;;;20.00;56.70;;;;;;5020695;28;20032;-63
2023/01/11 12:03:01;;;;;;;1.73;0.80;;;20.00;56.70;;;;;;5024540;28;20362;-62
2023/01/11 12:05:27;;;;;;;2.17;1.02;;;20.00;56.70;;;;;;5021629;28;20037;-62
2023/01/11 12:07:54;;;;;;;2.05;0.95;;;20.00;56.70;;;;;;5020725;28;20025;-63
2023/01/11 12:10:22;;;;;;;2.22;1.10;;;20.00;56.70;;;;;;5018799;28;20024;-65
2023/01/11 12:12:55;;;;;;;1.60;0.90;;;20.00;56.70;;;;;;5019836;28;20461;-66
2023/01/11 12:15:25;;;;;;;2.13;1.20;;;20.00;56.70;;;;;;5014564;28;20489;-63
2023/01/11 12:17:53;;;;;;;1.88;1.10;;;20.00;56.70;;;;;;5017624;28;20030;-63
2023/01/11 12:20:21;;;;;;;2.50;1.00;;;20.00;56.70;;;;;;5022194;28;20025;-63
2023/01/11 12:23:08;;;;;;;1.57;0.90;;;20.00;56.70;;;;;;5019286;28;20040;-63
2023/01/11 12:25:48;;;;;;;2.00;0.95;;;20.00;56.70;;;;;;5021803;28;20264;-63
2023/01/11 12:28:50;;;;;;;1.70;0.90;;;20.00;56.70;;;;;;5021577;28;20442;-63
2023/01/11 12:31:35;;;;;;;2.58;1.02;;;20.00;56.70;;;;;;5022500;28;20203;-63
2023/01/11 12:34:18;;;;;;;1.83;1.08;;;20.00;56.70;;;;;;5018429;28;20026;-62
2023/01/11 12:37:05;;;;;;;2.92;0.93;;;20.00;56.80;;;;;;5024337;28;20465;-63
2023/01/11 12:39:56;;;;;;;1.52;0.90;;;19.90;56.70;;;;;;5021663;28;20025;-63
2023/01/11 12:42:21;;;;;;;1.75;0.90;;;20.00;56.70;;;;;;5023059;28;20541;-64
2023/01/11 12:44:53;;;;;;;2.45;1.13;;;19.90;56.70;;;;;;5020702;28;20112;-63
2023/01/11 12:47:46;;;;;;;1.92;1.10;;;19.90;56.70;;;;;;5021251;28;20511;-64
2023/01/11 12:50:42;;;;;;;1.98;0.90;;;19.90;56.70;;;;;;5020213;28;20034;-64
2023/01/11 12:53:33;;;;;;;1.80;1.00;;;19.90;56.70;;;;;;5020371;28;20042;-64
2023/01/11 12:56:20;;;;;;;1.65;1.00;;;19.90;56.70;;;;;;5018104;28;20022;-64
2023/01/11 12:59:18;;;;;;;2.53;1.10;;;19.90;56.70;;;;;;5022575;28;20108;-63
2023/01/11 13:02:22;;;;;;;1.27;0.80;;;19.90;56.70;;;;;;5022359;28;20032;-63
2023/01/11 13:05:14;;;;;;;2.80;1.05;;;19.90;56.70;;;;;;5015435;28;20483;-63
2023/01/11 13:07:59;;;;;;;2.58;1.20;;;19.90;56.60;;;;;;5020516;28;20369;-64
2023/01/11 13:10:24;;;;;;;2.22;0.90;;;19.90;56.60;;;;;;5021014;28;20025;-64
2023/01/11 13:13:16;;;;;;;2.97;1.05;;;19.90;56.70;;;;;;5018301;28;20041;-64
2023/01/11 13:15:44;;;;;;;1.83;1.00;;;19.90;56.70;;;;;;5018570;28;20057;-64
2023/01/11 13:18:25;;;;;;;1.80;0.85;;;19.90;56.60;;;;;;5037793;28;20032;-64
2023/01/11 13:20:59;;;;;;;1.77;1.00;;;19.90;56.60;;;;;;5020482;28;20366;-64
2023/01/11 13:23:55;;;;;;;1.80;0.88;;;19.90;56.60;;;;;;5021599;28;20503;-64
2023/01/11 13:26:35;;;;;;;3.53;1.00;;;19.90;56.60;;;;;;5023091;28;20033;-64
2023/01/11 13:29:12;;;;;;;1.80;0.90;;;19.90;56.60;;;;;;5019835;28;20542;-64
2023/01/11 13:31:39;;;;;;;1.50;0.90;;;19.90;56.60;;;;;;5023223;28;20026;-64
2023/01/11 13:34:28;;;;;;;1.77;0.80;;;19.90;56.60;;;;;;5017546;28;20025;-64
2023/01/11 13:37:21;;;;;;;1.35;0.80;;;19.90;56.60;;;;;;5016903;28;20440;-64
2023/01/11 13:39:56;;;;;;;1.55;0.90;;;19.90;56.60;;;;;;5023108;28;20511;-64
2023/01/11 13:42:26;;;;;;;1.77;0.75;;;19.90;56.60;;;;;;5017877;28;20076;-64
2023/01/11 13:45:01;;;;;;;2.17;0.90;;;19.90;56.60;;;;;;5016354;28;20025;-64
2023/01/11 13:47:30;;;;;;;1.27;0.70;;;19.90;56.60;;;;;;5016217;28;20131;-64
2023/01/11 13:50:01;;;;;;;1.85;0.80;;;19.90;56.60;;;;;;5020578;28;20501;-64